sensor_id;sensor_type;location;lat;lon;timestamp;pressure;altitude;pressure_sealevel;temperature;humidity
66560;BME280;53413;49.878;8.142;2023-02-13T00:02:19;102101.28;;;0.64;100.00
66560;BME280;53413;49.878;8.142;2023-02-13T00:04:44;102104.69;;;0.63;100.00
66560;BME280;53413;49.878;8.142;2023-02-13T00:07:10;102100.28;;;0.59;100.00
66560;BME280;53413;49.878;8.142;2023-02-13T00:09:38;102090.66;;;0.55;100.00
66560;BME280;53413;49.878;8.142;2023-02-13T00:12:05;102085.44;;;0.53;100.00
66560;BME280;53413;49.878;8.142;2023-02-13T00:14:37;102093.09;;;0.52;100.00
66560;BME280;53413;49.878;8.142;2023-02-13T00:17:03;102081.03;;;0.51;100.00
66560;BME280;53413;49.878;8.142;2023-02-13T00:19:29;102085.44;;;0.53;100.00
66560;BME280;53413;49.878;8.142;2023-02-13T00:21:54;102082.78;;;0.52;100.00
66560;BME280;53413;49.878;8.142;2023-02-13T00:24:19;102084.56;;;0.53;100.00
66560;BME280;53413;49.878;8.142;2023-02-13T00:26:45;102087.94;;;0.52;100.00
66560;BME280;53413;49.878;8.142;2023-02-13T00:29:10;102080.88;;;0.46;100.00
66560;BME280;53413;49.878;8.142;2023-02-13T00:31:35;102077.41;;;0.45;100.00
66560;BME280;53413;49.878;8.142;2023-02-13T00:34:01;102080.81;;;0.44;100.00
66560;BME280;53413;49.878;8.142;2023-02-13T00:36:26;102079.00;;;0.42;100.00
66560;BME280;53413;49.878;8.142;2023-02-13T00:38:52;102069.41;;;0.38;100.00
66560;BME280;53413;49.878;8.142;2023-02-13T00:41:17;102070.09;;;0.34;100.00
66560;BME280;53413;49.878;8.142;2023-02-13T00:43:44;102071.72;;;0.32;100.00
66560;BME280;53413;49.878;8.142;2023-02-13T00:46:09;102072.47;;;0.27;100.00
66560;BME280;53413;49.878;8.142;2023-02-13T00:48:35;102065.47;;;0.25;100.00
66560;BME280;53413;49.878;8.142;2023-02-13T00:51:01;102068.81;;;0.22;100.00
66560;BME280;53413;49.878;8.142;2023-02-13T00:53:26;102075.59;;;0.20;100.00
66560;BME280;53413;49.878;8.142;2023-02-13T00:55:52;102074.22;;;0.28;100.00
66560;BME280;53413;49.878;8.142;2023-02-13T00:58:18;102078.47;;;0.28;100.00
66560;BME280;53413;49.878;8.142;2023-02-13T01:00:44;102074.09;;;0.25;100.00
66560;BME280;53413;49.878;8.142;2023-02-13T01:03:14;102074.59;;;0.39;100.00
66560;BME280;53413;49.878;8.142;2023-02-13T01:05:41;102081.81;;;0.48;100.00
66560;BME280;53413;49.878;8.142;2023-02-13T01:08:06;102080.75;;;0.43;100.00
66560;BME280;53413;49.878;8.142;2023-02-13T01:10:32;102080.47;;;0.35;100.00
66560;BME280;53413;49.878;8.142;2023-02-13T01:12:57;102076.84;;;0.30;100.00
66560;BME280;53413;49.878;8.142;2023-02-13T01:15:23;102076.63;;;0.24;100.00
66560;BME280;53413;49.878;8.142;2023-02-13T01:17:48;102080.75;;;0.20;100.00
66560;BME280;53413;49.878;8.142;2023-02-13T01:20:14;102077.44;;;0.23;100.00
66560;BME280;53413;49.878;8.142;2023-02-13T01:22:39;102076.50;;;0.21;100.00
66560;BME280;53413;49.878;8.142;2023-02-13T01:25:05;102082.41;;;0.18;100.00
66560;BME280;53413;49.878;8.142;2023-02-13T01:27:31;102081.31;;;0.11;100.00
66560;BME280;53413;49.878;8.142;2023-02-13T01:29:57;102085.44;;;0.08;100.00
66560;BME280;53413;49.878;8.142;2023-02-13T01:32:23;102082.78;;;0.05;100.00
66560;BME280;53413;49.878;8.142;2023-02-13T01:34:48;102087.84;;;0.03;100.00
66560;BME280;53413;49.878;8.142;2023-02-13T01:37:14;102087.75;;;0.00;100.00
66560;BME280;53413;49.878;8.142;2023-02-13T01:39:39;102086.88;;;-0.01;100.00
66560;BME280;53413;49.878;8.142;2023-02-13T01:42:08;102089.41;;;-0.02;100.00
66560;BME280;53413;49.878;8.142;2023-02-13T01:44:56;102083.28;;;-0.04;100.00
66560;BME280;53413;49.878;8.142;2023-02-13T01:47:43;102088.38;;;-0.06;100.00
66560;BME280;53413;49.878;8.142;2023-02-13T01:50:18;102081.34;;;-0.10;100.00
66560;BME280;53413;49.878;8.142;2023-02-13T01:52:56;102075.22;;;-0.13;100.00
66560;BME280;53413;49.878;8.142;2023-02-13T01:55:25;102069.03;;;-0.17;100.00
66560;BME280;53413;49.878;8.142;2023-02-13T01:58:02;102069.81;;;-0.20;100.00
66560;BME280;53413;49.878;8.142;2023-02-13T02:00:29;102073.16;;;-0.22;100.00
66560;BME280;53413;49.878;8.142;2023-02-13T02:03:04;102073.16;;;-0.22;100.00
66560;BME280;53413;49.878;8.142;2023-02-13T02:05:33;102070.44;;;-0.25;100.00
66560;BME280;53413;49.878;8.142;2023-02-13T02:08:01;102072.06;;;-0.27;100.00
66560;BME280;53413;49.878;8.142;2023-02-13T02:10:29;102076.22;;;-0.31;100.00
66560;BME280;53413;49.878;8.142;2023-02-13T02:13:06;102069.91;;;-0.39;100.00
66560;BME280;53413;49.878;8.142;2023-02-13T02:15:33;102070.59;;;-0.43;100.00
66560;BME280;53413;49.878;8.142;2023-02-13T02:17:59;102069.63;;;-0.45;100.00
66560;BME280;53413;49.878;8.142;2023-02-13T02:20:44;102067.06;;;-0.45;100.00
66560;BME280;53413;49.878;8.142;2023-02-13T02:40:27;102059.41;;;-0.65;100.00
66560;BME280;53413;49.878;8.142;2023-02-13T02:43:09;102058.53;;;-0.66;100.00
66560;BME280;53413;49.878;8.142;2023-02-13T02:45:53;102059.41;;;-0.65;100.00
66560;BME280;53413;49.878;8.142;2023-02-13T02:48:32;102055.09;;;-0.66;100.00
66560;BME280;53413;49.878;8.142;2023-02-13T02:57:02;102059.78;;;-0.77;100.00
66560;BME280;53413;49.878;8.142;2023-02-13T02:59:31;102062.16;;;-0.82;100.00
66560;BME280;53413;49.878;8.142;2023-02-13T03:02:17;102068.94;;;-0.84;100.00
66560;BME280;53413;49.878;8.142;2023-02-13T03:05:20;102071.47;;;-0.85;100.00
66560;BME280;53413;49.878;8.142;2023-02-13T03:08:07;102069.69;;;-0.86;100.00
66560;BME280;53413;49.878;8.142;2023-02-13T03:10:34;102068.88;;;-0.85;100.00
66560;BME280;53413;49.878;8.142;2023-02-13T03:13:44;102063.78;;;-0.84;100.00
66560;BME280;53413;49.878;8.142;2023-02-13T03:16:16;102064.69;;;-0.83;100.00
66560;BME280;53413;49.878;8.142;2023-02-13T03:19:02;102067.25;;;-0.83;100.00
66560;BME280;53413;49.878;8.142;2023-02-13T03:21:58;102066.31;;;-0.85;100.00
66560;BME280;53413;49.878;8.142;2023-02-13T03:27:50;102059.06;;;-0.94;100.00
66560;BME280;53413;49.878;8.142;2023-02-13T03:39:20;102061.22;;;-1.05;100.00
66560;BME280;53413;49.878;8.142;2023-02-13T03:41:59;102065.41;;;-1.07;100.00
66560;BME280;53413;49.878;8.142;2023-02-13T03:47:03;102069.59;;;-1.09;100.00
66560;BME280;53413;49.878;8.142;2023-02-13T03:49:39;102072.03;;;-1.12;100.00
66560;BME280;53413;49.878;8.142;2023-02-13T03:55:11;102073.78;;;-1.11;100.00
66560;BME280;53413;49.878;8.142;2023-02-13T03:57:59;102070.16;;;-1.16;100.00
66560;BME280;53413;49.878;8.142;2023-02-13T04:00:50;102074.34;;;-1.18;100.00
66560;BME280;53413;49.878;8.142;2023-02-13T04:06:14;102073.16;;;-1.27;100.00
66560;BME280;53413;49.878;8.142;2023-02-13T04:08:38;102079.91;;;-1.29;100.00
66560;BME280;53413;49.878;8.142;2023-02-13T04:13:42;102082.34;;;-1.32;100.00
66560;BME280;53413;49.878;8.142;2023-02-13T04:16:19;102080.66;;;-1.31;100.00
66560;BME280;53413;49.878;8.142;2023-02-13T04:18:47;102080.72;;;-1.30;100.00
66560;BME280;53413;49.878;8.142;2023-02-13T04:21:13;102074.78;;;-1.29;100.00
66560;BME280;53413;49.878;8.142;2023-02-13T04:23:39;102077.34;;;-1.29;100.00
66560;BME280;53413;49.878;8.142;2023-02-13T04:26:07;102080.66;;;-1.31;100.00
66560;BME280;53413;49.878;8.142;2023-02-13T04:28:34;102076.25;;;-1.34;100.00
66560;BME280;53413;49.878;8.142;2023-02-13T04:31:00;102077.88;;;-1.36;100.00
66560;BME280;53413;49.878;8.142;2023-02-13T04:33:25;102076.09;;;-1.37;100.00
66560;BME280;53413;49.878;8.142;2023-02-13T04:35:50;102074.34;;;-1.38;100.00
66560;BME280;53413;49.878;8.142;2023-02-13T04:38:16;102065.72;;;-1.40;100.00
66560;BME280;53413;49.878;8.142;2023-02-13T04:40:41;102066.53;;;-1.41;100.00
66560;BME280;53413;49.878;8.142;2023-02-13T04:43:07;102062.19;;;-1.42;100.00
66560;BME280;53413;49.878;8.142;2023-02-13T04:45:32;102065.50;;;-1.45;100.00
66560;BME280;53413;49.878;8.142;2023-02-13T04:47:57;102067.19;;;-1.45;100.00
66560;BME280;53413;49.878;8.142;2023-02-13T04:50:23;102063.75;;;-1.46;100.00
66560;BME280;53413;49.878;8.142;2023-02-13T04:52:53;102067.19;;;-1.45;100.00
66560;BME280;53413;49.878;8.142;2023-02-13T04:55:19;102066.19;;;-1.49;100.00
66560;BME280;53413;49.878;8.142;2023-02-13T04:57:44;102065.28;;;-1.49;100.00
66560;BME280;53413;49.878;8.142;2023-02-13T05:00:10;102071.25;;;-1.50;100.00
66560;BME280;53413;49.878;8.142;2023-02-13T05:02:36;102060.84;;;-1.53;100.00
66560;BME280;53413;49.878;8.142;2023-02-13T05:05:01;102062.44;;;-1.56;100.00
66560;BME280;53413;49.878;8.142;2023-02-13T05:07:27;102068.25;;;-1.60;100.00
66560;BME280;53413;49.878;8.142;2023-02-13T05:09:52;102068.25;;;-1.60;100.00
66560;BME280;53413;49.878;8.142;2023-02-13T05:12:17;102066.50;;;-1.61;100.00
66560;BME280;53413;49.878;8.142;2023-02-13T05:14:43;102066.38;;;-1.64;100.00
66560;BME280;53413;49.878;8.142;2023-02-13T05:17:08;102070.56;;;-1.66;100.00
66560;BME280;53413;49.878;8.142;2023-02-13T05:19:33;102067.03;;;-1.68;100.00
66560;BME280;53413;49.878;8.142;2023-02-13T05:21:59;102069.47;;;-1.71;100.00
66560;BME280;53413;49.878;8.142;2023-02-13T05:24:43;102074.41;;;-1.76;100.00
66560;BME280;53413;49.878;8.142;2023-02-13T05:27:08;102064.88;;;-1.78;100.00
66560;BME280;53413;49.878;8.142;2023-02-13T05:29:33;102069.91;;;-1.80;100.00
66560;BME280;53413;49.878;8.142;2023-02-13T05:31:58;102069.00;;;-1.82;100.00
66560;BME280;53413;49.878;8.142;2023-02-13T05:34:26;102079.97;;;-1.84;100.00
66560;BME280;53413;49.878;8.142;2023-02-13T05:36:52;102070.47;;;-1.87;100.00
66560;BME280;53413;49.878;8.142;2023-02-13T05:39:18;102077.31;;;-1.88;100.00
66560;BME280;53413;49.878;8.142;2023-02-13T05:41:44;102079.78;;;-1.89;100.00
66560;BME280;53413;49.878;8.142;2023-02-13T05:44:11;102073.63;;;-1.93;100.00
66560;BME280;53413;49.878;8.142;2023-02-13T05:46:37;102076.94;;;-1.95;100.00
66560;BME280;53413;49.878;8.142;2023-02-13T05:49:03;102075.19;;;-1.96;100.00
66560;BME280;53413;49.878;8.142;2023-02-13T05:51:29;102074.22;;;-1.98;100.00
66560;BME280;53413;49.878;8.142;2023-02-13T05:53:54;102071.59;;;-2.00;100.00
66560;BME280;53413;49.878;8.142;2023-02-13T05:56:20;102068.94;;;-2.02;100.00
66560;BME280;53413;49.878;8.142;2023-02-13T05:58:45;102074.16;;;-2.00;100.00
66560;BME280;53413;49.878;8.142;2023-02-13T06:01:11;102071.59;;;-2.00;100.00
66560;BME280;53413;49.878;8.142;2023-02-13T06:03:37;102070.63;;;-2.02;100.00
66560;BME280;53413;49.878;8.142;2023-02-13T06:06:04;102075.69;;;-2.04;100.00
66560;BME280;53413;49.878;8.142;2023-02-13T06:08:30;102073.06;;;-2.05;100.00
66560;BME280;53413;49.878;8.142;2023-02-13T06:10:55;102073.94;;;-2.05;100.00
66560;BME280;53413;49.878;8.142;2023-02-13T06:13:20;102074.06;;;-2.02;100.00
66560;BME280;53413;49.878;8.142;2023-02-13T06:15:45;102071.44;;;-2.03;100.00
66560;BME280;53413;49.878;8.142;2023-02-13T06:18:11;102074.00;;;-2.03;100.00
66560;BME280;53413;49.878;8.142;2023-02-13T06:20:37;102079.09;;;-2.05;100.00
66560;BME280;53413;49.878;8.142;2023-02-13T06:23:02;102079.00;;;-2.06;100.00
66560;BME280;53413;49.878;8.142;2023-02-13T06:25:28;102072.91;;;-2.08;100.00
66560;BME280;53413;49.878;8.142;2023-02-13T06:27:53;102071.94;;;-2.10;100.00
66560;BME280;53413;49.878;8.142;2023-02-13T06:30:19;102074.50;;;-2.10;100.00
66560;BME280;53413;49.878;8.142;2023-02-13T06:32:46;102078.84;;;-2.09;100.00
66560;BME280;53413;49.878;8.142;2023-02-13T06:35:12;102074.50;;;-2.10;100.00
66560;BME280;53413;49.878;8.142;2023-02-13T06:37:38;102071.00;;;-2.12;100.00
66560;BME280;53413;49.878;8.142;2023-02-13T06:40:05;102076.28;;;-2.09;100.00
66560;BME280;53413;49.878;8.142;2023-02-13T06:42:30;102081.56;;;-2.06;100.00
66560;BME280;53413;49.878;8.142;2023-02-13T06:44:56;102081.72;;;-2.03;100.00
66560;BME280;53413;49.878;8.142;2023-02-13T06:47:21;102086.25;;;-1.97;100.00
66560;BME280;53413;49.878;8.142;2023-02-13T06:49:46;102081.47;;;-1.90;100.00
66560;BME280;53413;49.878;8.142;2023-02-13T06:52:11;102075.00;;;-1.81;100.00
66560;BME280;53413;49.878;8.142;2023-02-13T06:54:37;102083.28;;;-1.69;100.00
66560;BME280;53413;49.878;8.142;2023-02-13T06:57:02;102079.50;;;-1.58;100.00
66560;BME280;53413;49.878;8.142;2023-02-13T06:59:27;102075.72;;;-1.46;100.00
66560;BME280;53413;49.878;8.142;2023-02-13T07:01:53;102084.72;;;-1.36;100.00
66560;BME280;53413;49.878;8.142;2023-02-13T07:04:18;102086.81;;;-1.28;100.00
66560;BME280;53413;49.878;8.142;2023-02-13T07:06:43;102081.19;;;-1.19;100.00
66560;BME280;53413;49.878;8.142;2023-02-13T07:09:09;102079.94;;;-1.08;100.00
66560;BME280;53413;49.878;8.142;2023-02-13T07:11:37;102082.75;;;-1.03;100.00
66560;BME280;53413;49.878;8.142;2023-02-13T07:14:03;102071.22;;;-0.91;100.00
66560;BME280;53413;49.878;8.142;2023-02-13T07:16:28;102074.34;;;-0.78;100.00
66560;BME280;53413;49.878;8.142;2023-02-13T07:18:53;102072.09;;;-0.70;100.00
66560;BME280;53413;49.878;8.142;2023-02-13T07:21:19;102072.66;;;-0.56;100.00
66560;BME280;53413;49.878;8.142;2023-02-13T07:23:44;102072.28;;;-0.44;100.00
66560;BME280;53413;49.878;8.142;2023-02-13T07:26:09;102089.16;;;-0.29;100.00
66560;BME280;53413;49.878;8.142;2023-02-13T07:28:35;102084.75;;;-0.11;100.00
66560;BME280;53413;49.878;8.142;2023-02-13T07:31:04;102079.38;;;0.06;100.00
66560;BME280;53413;49.878;8.142;2023-02-13T07:33:31;102082.88;;;0.30;100.00
66560;BME280;53413;49.878;8.142;2023-02-13T07:35:56;102082.75;;;0.50;100.00
66560;BME280;53413;49.878;8.142;2023-02-13T07:38:21;102079.44;;;0.79;100.00
66560;BME280;53413;49.878;8.142;2023-02-13T07:40:47;102082.22;;;1.09;100.00
66560;BME280;53413;49.878;8.142;2023-02-13T07:43:12;102072.84;;;1.37;100.00
66560;BME280;53413;49.878;8.142;2023-02-13T07:45:38;102081.44;;;1.63;100.00
66560;BME280;53413;49.878;8.142;2023-02-13T07:48:03;102078.59;;;1.83;100.00
66560;BME280;53413;49.878;8.142;2023-02-13T07:50:29;102082.25;;;2.19;100.00
66560;BME280;53413;49.878;8.142;2023-02-13T07:52:56;102082.00;;;2.70;100.00
66560;BME280;53413;49.878;8.142;2023-02-13T07:55:21;102088.00;;;3.35;100.00
66560;BME280;53413;49.878;8.142;2023-02-13T07:57:48;102079.31;;;4.06;100.00
66560;BME280;53413;49.878;8.142;2023-02-13T08:00:14;102080.78;;;4.79;100.00
66560;BME280;53413;49.878;8.142;2023-02-13T08:02:40;102075.69;;;5.33;100.00
66560;BME280;53413;49.878;8.142;2023-02-13T08:05:05;102079.91;;;5.81;100.00
66560;BME280;53413;49.878;8.142;2023-02-13T08:07:31;102069.25;;;6.26;100.00
66560;BME280;53413;49.878;8.142;2023-02-13T08:09:56;102068.19;;;6.84;100.00
66560;BME280;53413;49.878;8.142;2023-02-13T08:12:40;102071.44;;;7.53;100.00
66560;BME280;53413;49.878;8.142;2023-02-13T08:15:07;102080.56;;;8.28;100.00
66560;BME280;53413;49.878;8.142;2023-02-13T08:17:33;102070.38;;;8.93;100.00
66560;BME280;53413;49.878;8.142;2023-02-13T08:19:58;102066.00;;;9.75;100.00
66560;BME280;53413;49.878;8.142;2023-02-13T08:22:24;102066.56;;;10.74;97.51
66560;BME280;53413;49.878;8.142;2023-02-13T08:24:49;102071.41;;;11.30;90.90
66560;BME280;53413;49.878;8.142;2023-02-13T08:27:15;102065.69;;;11.81;86.71
66560;BME280;53413;49.878;8.142;2023-02-13T08:29:40;102069.06;;;12.66;77.72
66560;BME280;53413;49.878;8.142;2023-02-13T08:32:06;102063.81;;;13.26;78.30
66560;BME280;53413;49.878;8.142;2023-02-13T08:34:31;102066.97;;;13.49;72.02
66560;BME280;53413;49.878;8.142;2023-02-13T08:36:56;102065.91;;;14.05;72.88
66560;BME280;53413;49.878;8.142;2023-02-13T08:39:22;102056.13;;;15.31;67.14
66560;BME280;53413;49.878;8.142;2023-02-13T08:41:47;102060.00;;;16.77;64.15
66560;BME280;53413;49.878;8.142;2023-02-13T08:44:12;102055.09;;;17.97;58.56
66560;BME280;53413;49.878;8.142;2023-02-13T08:46:38;102057.19;;;18.59;52.73
66560;BME280;53413;49.878;8.142;2023-02-13T08:49:03;102056.94;;;19.32;53.61
66560;BME280;53413;49.878;8.142;2023-02-13T08:51:28;102057.38;;;20.04;49.90
66560;BME280;53413;49.878;8.142;2023-02-13T08:53:53;102065.84;;;20.52;48.54
66560;BME280;53413;49.878;8.142;2023-02-13T08:56:19;102059.97;;;21.18;48.05
66560;BME280;53413;49.878;8.142;2023-02-13T08:58:47;102054.88;;;21.49;45.91
66560;BME280;53413;49.878;8.142;2023-02-13T09:01:13;102055.97;;;21.96;46.21
66560;BME280;53413;49.878;8.142;2023-02-13T09:03:38;102051.94;;;22.70;45.36
66560;BME280;53413;49.878;8.142;2023-02-13T09:06:03;102054.81;;;23.44;43.44
66560;BME280;53413;49.878;8.142;2023-02-13T09:08:29;102053.59;;;23.93;42.05
66560;BME280;53413;49.878;8.142;2023-02-13T09:10:57;62379.06;;;-147.87;100.00
66560;BME280;53413;49.878;8.142;2023-02-13T09:13:22;102048.09;;;23.96;41.28
66560;BME280;53413;49.878;8.142;2023-02-13T09:15:47;102052.28;;;24.15;40.93
66560;BME280;53413;49.878;8.142;2023-02-13T09:18:13;102055.91;;;24.00;40.89
66560;BME280;53413;49.878;8.142;2023-02-13T09:20:38;102059.66;;;24.11;40.56
66560;BME280;53413;49.878;8.142;2023-02-13T09:23:03;102048.00;;;23.98;40.78
66560;BME280;53413;49.878;8.142;2023-02-13T09:25:29;102060.38;;;23.85;40.58
66560;BME280;53413;49.878;8.142;2023-02-13T09:27:55;102055.19;;;23.97;40.88
66560;BME280;53413;49.878;8.142;2023-02-13T09:30:20;102055.19;;;23.97;40.60
66560;BME280;53413;49.878;8.142;2023-02-13T09:32:50;102060.13;;;24.04;41.25
66560;BME280;53413;49.878;8.142;2023-02-13T09:35:16;102058.00;;;23.80;40.80
66560;BME280;53413;49.878;8.142;2023-02-13T09:37:42;102061.06;;;23.74;41.61
66560;BME280;53413;49.878;8.142;2023-02-13T09:40:22;102060.16;;;23.44;40.75
66560;BME280;53413;49.878;8.142;2023-02-13T09:42:48;102065.06;;;23.21;42.05
66560;BME280;53413;49.878;8.142;2023-02-13T09:45:15;102065.97;;;22.90;42.12
66560;BME280;53413;49.878;8.142;2023-02-13T09:47:44;102063.81;;;22.81;42.01
66560;BME280;53413;49.878;8.142;2023-02-13T09:50:17;102060.97;;;22.84;41.60
66560;BME280;53413;49.878;8.142;2023-02-13T09:52:48;102075.63;;;22.44;42.19
66560;BME280;53413;49.878;8.142;2023-02-13T09:57:50;102075.31;;;21.83;43.14
66560;BME280;53413;49.878;8.142;2023-02-13T10:00:29;102076.75;;;21.56;43.64
66560;BME280;53413;49.878;8.142;2023-02-13T10:09:32;102089.47;;;20.01;46.19
66560;BME280;53413;49.878;8.142;2023-02-13T10:11:39;102089.00;;;19.91;46.96
66560;BME280;53413;49.878;8.142;2023-02-13T10:14:16;102087.69;;;19.17;48.04
66560;BME280;53413;49.878;8.142;2023-02-13T10:21:49;102094.03;;;14.91;57.58
66560;BME280;53413;49.878;8.142;2023-02-13T10:26:43;102093.91;;;13.09;64.46
66560;BME280;53413;49.878;8.142;2023-02-13T10:32:06;102089.41;;;11.72;71.54
66560;BME280;53413;49.878;8.142;2023-02-13T10:34:43;102084.59;;;11.24;76.85
66560;BME280;53413;49.878;8.142;2023-02-13T10:37:13;102083.88;;;11.02;81.14
66560;BME280;53413;49.878;8.142;2023-02-13T10:39:42;102089.31;;;10.66;84.12
66560;BME280;53413;49.878;8.142;2023-02-13T10:45:12;102079.91;;;10.09;93.55
66560;BME280;53413;49.878;8.142;2023-02-13T10:58:28;102061.56;;;10.06;98.71
66560;BME280;53413;49.878;8.142;2023-02-13T11:01:12;102058.09;;;10.01;99.74
66560;BME280;53413;49.878;8.142;2023-02-13T11:03:41;102045.88;;;9.94;98.23
66560;BME280;53413;49.878;8.142;2023-02-13T11:06:10;102046.78;;;9.83;98.88
66560;BME280;53413;49.878;8.142;2023-02-13T11:08:40;102050.31;;;9.72;100.00
66560;BME280;53413;49.878;8.142;2023-02-13T11:11:35;102045.94;;;9.72;100.00
66560;BME280;53413;49.878;8.142;2023-02-13T11:14:27;102042.47;;;9.65;100.00
66560;BME280;53413;49.878;8.142;2023-02-13T11:16:58;102045.97;;;9.66;100.00
66560;BME280;53413;49.878;8.142;2023-02-13T11:19:47;102044.19;;;9.71;100.00
66560;BME280;53413;49.878;8.142;2023-02-13T11:22:28;102038.94;;;9.83;100.00
66560;BME280;53413;49.878;8.142;2023-02-13T11:24:58;102041.50;;;9.93;100.00
66560;BME280;53413;49.878;8.142;2023-02-13T11:27:31;102043.25;;;10.03;100.00
66560;BME280;53413;49.878;8.142;2023-02-13T11:29:59;102048.47;;;10.05;100.00
66560;BME280;53413;49.878;8.142;2023-02-13T11:32:28;102037.97;;;10.06;100.00
66560;BME280;53413;49.878;8.142;2023-02-13T11:34:54;102036.28;;;9.99;100.00
66560;BME280;53413;49.878;8.142;2023-02-13T11:37:28;102038.91;;;10.02;100.00
66560;BME280;53413;49.878;8.142;2023-02-13T11:39:59;102044.13;;;10.10;100.00
66560;BME280;53413;49.878;8.142;2023-02-13T11:42:46;102043.16;;;10.28;100.00
66560;BME280;53413;49.878;8.142;2023-02-13T11:45:24;102033.53;;;10.41;100.00
66560;BME280;53413;49.878;8.142;2023-02-13T11:47:50;102036.13;;;10.42;100.00
66560;BME280;53413;49.878;8.142;2023-02-13T11:50:24;102036.09;;;10.49;100.00
66560;BME280;53413;49.878;8.142;2023-02-13T11:52:55;102033.47;;;10.52;99.40
66560;BME280;53413;49.878;8.142;2023-02-13T11:55:29;102031.69;;;10.57;100.00
66560;BME280;53413;49.878;8.142;2023-02-13T11:57:57;102028.13;;;10.67;98.80
66560;BME280;53413;49.878;8.142;2023-02-13T12:00:35;102027.28;;;10.63;98.50
66560;BME280;53413;49.878;8.142;2023-02-13T12:08:36;102026.38;;;10.68;95.04
66560;BME280;53413;49.878;8.142;2023-02-13T12:11:13;102016.81;;;10.62;95.70
66560;BME280;53413;49.878;8.142;2023-02-13T12:13:41;102018.59;;;10.58;93.85
66560;BME280;53413;49.878;8.142;2023-02-13T12:16:15;102020.34;;;10.53;88.81
66560;BME280;53413;49.878;8.142;2023-02-13T12:18:48;102002.00;;;10.50;88.30
66560;BME280;53413;49.878;8.142;2023-02-13T12:24:11;102004.63;;;10.56;87.21
66560;BME280;53413;49.878;8.142;2023-02-13T12:26:52;101998.47;;;10.62;86.42
66560;BME280;53413;49.878;8.142;2023-02-13T12:32:20;101996.66;;;10.67;85.85
66560;BME280;53413;49.878;8.142;2023-02-13T12:40:21;101986.91;;;10.88;86.97
66560;BME280;53413;49.878;8.142;2023-02-13T12:43:57;101986.00;;;10.92;86.90
66560;BME280;53413;49.878;8.142;2023-02-13T12:56:52;101973.66;;;11.03;88.91
66560;BME280;53413;49.878;8.142;2023-02-13T13:04:41;101965.81;;;11.02;85.03
66560;BME280;53413;49.878;8.142;2023-02-13T13:10:01;101964.09;;;10.99;84.15
66560;BME280;53413;49.878;8.142;2023-02-13T13:20:47;101955.19;;;11.16;82.44
66560;BME280;53413;49.878;8.142;2023-02-13T13:28:22;101944.69;;;11.17;84.70
66560;BME280;53413;49.878;8.142;2023-02-13T13:30:49;101949.06;;;11.18;85.33
66560;BME280;53413;49.878;8.142;2023-02-13T13:33:19;101942.91;;;11.21;85.26
66560;BME280;53413;49.878;8.142;2023-02-13T13:36:43;101944.69;;;11.16;84.50
66560;BME280;53413;49.878;8.142;2023-02-13T13:42:17;101936.78;;;11.22;83.83
66560;BME280;53413;49.878;8.142;2023-02-13T13:50:32;101933.09;;;11.37;84.15
66560;BME280;53413;49.878;8.142;2023-02-13T13:53:17;101933.97;;;11.37;82.07
66560;BME280;53413;49.878;8.142;2023-02-13T13:58:30;101928.66;;;11.44;80.65
66560;BME280;53413;49.878;8.142;2023-02-13T14:03:48;101924.22;;;11.50;80.37
66560;BME280;53413;49.878;8.142;2023-02-13T14:06:15;101917.19;;;11.52;79.73
66560;BME280;53413;49.878;8.142;2023-02-13T14:11:41;101916.25;;;11.57;79.26
66560;BME280;53413;49.878;8.142;2023-02-13T14:16:58;101911.09;;;11.50;79.27
66560;BME280;53413;49.878;8.142;2023-02-13T14:21:52;101913.78;;;11.43;79.42
66560;BME280;53413;49.878;8.142;2023-02-13T14:24:19;101915.56;;;11.42;79.67
66560;BME280;53413;49.878;8.142;2023-02-13T14:26:52;101903.31;;;11.39;79.96
66560;BME280;53413;49.878;8.142;2023-02-13T14:29:25;101906.00;;;11.35;80.11
66560;BME280;53413;49.878;8.142;2023-02-13T14:32:01;101903.47;;;11.29;80.21
66560;BME280;53413;49.878;8.142;2023-02-13T14:34:34;101896.53;;;11.23;81.28
66560;BME280;53413;49.878;8.142;2023-02-13T14:39:36;101900.97;;;11.15;81.65
66560;BME280;53413;49.878;8.142;2023-02-13T14:42:25;101892.25;;;11.11;81.30
66560;BME280;53413;49.878;8.142;2023-02-13T14:44:56;101889.69;;;11.06;82.02
66560;BME280;53413;49.878;8.142;2023-02-13T14:47:36;101893.22;;;11.02;82.31
66560;BME280;53413;49.878;8.142;2023-02-13T14:50:06;101890.63;;;10.98;83.52
66560;BME280;53413;49.878;8.142;2023-02-13T14:52:34;101884.59;;;10.92;83.51
66560;BME280;53413;49.878;8.142;2023-02-13T14:55:06;101888.97;;;10.90;83.47
66560;BME280;53413;49.878;8.142;2023-02-13T14:57:44;101889.91;;;10.85;84.61
66560;BME280;53413;49.878;8.142;2023-02-13T15:00:32;101893.44;;;10.77;84.76
66560;BME280;53413;49.878;8.142;2023-02-13T15:03:12;101892.63;;;10.71;85.32
66560;BME280;53413;49.878;8.142;2023-02-13T15:05:48;101895.31;;;10.65;86.20
66560;BME280;53413;49.878;8.142;2023-02-13T15:08:20;101888.38;;;10.56;87.24
66560;BME280;53413;49.878;8.142;2023-02-13T15:10:52;101898.94;;;10.50;87.12
66560;BME280;53413;49.878;8.142;2023-02-13T15:13:19;101883.22;;;10.43;88.04
66560;BME280;53413;49.878;8.142;2023-02-13T15:15:51;101886.75;;;10.41;87.96
66560;BME280;53413;49.878;8.142;2023-02-13T15:18:26;101885.88;;;10.36;88.18
66560;BME280;53413;49.878;8.142;2023-02-13T15:20:55;101885.03;;;10.32;88.76
66560;BME280;53413;49.878;8.142;2023-02-13T15:23:28;101881.56;;;10.25;89.12
66560;BME280;53413;49.878;8.142;2023-02-13T15:26:06;101884.25;;;10.17;89.85
66560;BME280;53413;49.878;8.142;2023-02-13T15:28:33;101890.41;;;10.10;90.55
66560;BME280;53413;49.878;8.142;2023-02-13T15:33:46;101883.47;;;10.05;91.76
66560;BME280;53413;49.878;8.142;2023-02-13T15:36:17;101878.25;;;10.00;92.14